Terminal Aerodrome Forecast
Issued by NWS

Home | Current Version | Previous Version | Text Only | Print | Product List | Glossary Off
Versions: 1 2 3 4 5 6 7 8 9 10 11 12 13 14 15 16

611
FTUS43 KMPX 231138
TAFAXN
TAF
KAXN 231138Z 2312/2412 18014KT P6SM SKC
     FM231500 19018G26KT P6SM SCT250
     FM240100 18008KT P6SM SCT060 BKN250 PROB30 2403/2408 -TSRA
      BKN035CB
     FM240800 30006KT P6SM SKC=

USA.gov is the U.S. government's official web portal to all federal, state and local government web resources and services.